Archival Weather

Agadez

Agadez, Niger (DRZA)

Report from: Thursday, September 21, 2023 10:00 AM WAT
Current time: Monday, July 22, 2024 1:00 PM WAT

Current weather – Weather history – Daily summaries
Weather forecast

Temperature35.0°C (95.0°F)
Heat index32.8°C (91.1°F)
Dew point7.0°C (44.6°F)
Winds 8 kts (4.1 m/s, 9.2 mph) East-Southeast (120°)
Clouds Sky clear
Altimeter29.94 in.Hg (1014 mB)
Relative humidity18 %
Density altitude2,392 ft. (729 m)
Remarks Ceiling and visibility OK
Flight conditions Visual Meteorological Conditions
Raw dataDRZA 210900Z 12008KT CAVOK 35/07 Q1014
An error has occurred. This application may no longer respond until reloaded. Reload 🗙